ROTAER D-AMDT 37/19 D-AMDT 5/20 Ver Mudanças

MARIO DE ALMEIDA FRANCO ( SBUR ) / UBERABA, MG 19 45 53S/047 57 58W
AD PUB INFRAERO 3/SW UTC-3 VFR IFR L21 , L23 , L26 809 (2654)

17 - L6 [1] , L9 [6] , L12 - ( 1759x45 ASPH 32/F/A/X/T L14 , L15 ) - L8 [2] , L9 [7] , L12 - 35

SBBS (CINDACTA 1)
COM -
TORRE [3] 118.500
RDONAV -
NDB URB [3] 235 1945.93S/04757.55W
CMB- [5] PF TF SER - S1  
MET -

[3] [4] [9] (34) 3319-9415 CMA 1,2,3,4,5,6,7,8,9

AIS - [3] [4] [8] (34) 3319-9411

RMK -

OBSTÁCULO DE AERÓDROMO
  1. OBS OBST:
    Torre metálica, HGT 70M, com balizamento à direita RWY 17.
    Torre de telecomunicações, NEG LGTD, COORD 194618.48S/0475710.29W, ELEV 861M
    Torre de telecomunicações, NEG LGTD, COORD 194611.85S/0475526.29W, ELEV 864M
LUZES DE APROXIMAÇÃO E DE PISTA
  1. Não confundir a iluminação da AV. Nenê Sabino, à esquerda RWY 17 com o balizamento da mesma
REGULAMENTOS PARA TRÁFEGO LOCAL
  1. OBS ACFT e planadores em vôo de instrução próximo ao AD
PROCEDIMENTOS DE VOO
  1. Não será aceito AFIL pelo APP/TWR Uberaba. ACFT com PLN VFR que operem a partir de AD desprovido de órgão ATS e que não planejem ingressar em espaço aéreo controlado ou em ZIDA estão dispensadas de apresentação de PLN, desde que não pretendam utilizar os serviços de informação de voo e de alerta.
INFORMAÇÃO ADICIONAL
  1. OBS concentração de pássaros (urubus) nas proximidades da RWY
COMPL -
  • [1] MEHT: 41FT
  • [2] MEHT: 40FT
  • [3] OPR INFRAERO
  • [4] Autoatendimento
  • [5] (DLY 0800-0100) - O/R: TEL: (34) 3336-1677 e (34) 99971-1013.
  • [6] MEHT: 40FT
  • [7] MEHT: 43FT
  • [8] Para informações adicionais consultar a sala AIS SBBH TEL/FAX PLN:(31) 3490-2134
  • [9] TEL CMA: (34) 3319-9415
TEMP (0)

Suplementos AIP (0)

NOTAM (3)

AGA

F2495/19 R F1983/19 26/12/2019 14:42
RWY 17/35 CLSD DEVIDO OBRAS

F2415/19 N 06/12/2019 17:40
ABN U/S


ATM

Z0448/18 N 01/03/2018 18:47
SID CORVO 1B - UDIGI 1B RWY 35 CORRIGIR NA DESCRICAO TEXTUAL:
DE: SAIDA UDIGI 1B: CURVAR A ESQUERDA, INTERCEPTAR E MANTER QDR 319 URB ATE LITUB, CURVAR A DIREITA, MANTER QDM 345 YBA ATE O NDB UDIGI
PARA: SAIDA UDIGI 1B: CURVAR A ESQUERDA, INTERCEPTAR E MANTER QDR 319 URB ATE LITUB, CURVAR A DIREITA, MANTER QDM 345 YBA ATE UDIGI.
REF: SID CORVO 1B-UDIGI 1B RWY 35


Nascer/Por do Sol

08:50

21:56


METAR

221700Z 10005KT 4000 1500NW -TSRA BKN030 FEW040CB 23/21 Q1009= 2020012217 - SPECI SBUR 221717Z 18004KT 1000 -TSRA BR BKN008 SCT040CB BKN080 22/22 Q1010=

TAF

221005Z 2212/2224 02005KT CAVOKTX28/2217Z TN23/2224ZBECMG 2213/2215 33007KT SCT035PROB40 2217/2223 25005KT TSRA SCT040 FEW045CB RMK PGN=


Cartas (11)

ADC


IAC


PDC


SID



Rotas Preferenciais (0)